createdAt,value
2023-01-17T00:00:52.370Z,100.00
2023-01-17T00:01:53.619Z,100.00
2023-01-17T00:02:57.261Z,100.00
2023-01-17T00:03:58.599Z,100.00
2023-01-17T00:04:59.897Z,100.00
2023-01-17T00:06:03.761Z,100.00
2023-01-17T00:07:04.946Z,100.00
2023-01-17T00:08:09.257Z,100.00
2023-01-17T00:09:11.520Z,100.00
2023-01-17T00:10:14.299Z,100.00
2023-01-17T00:11:16.898Z,99.96
2023-01-17T00:12:18.797Z,99.83
2023-01-17T00:13:20.057Z,100.00
2023-01-17T00:14:21.245Z,100.00
2023-01-17T00:15:23.031Z,99.29
2023-01-17T00:16:24.247Z,99.80
2023-01-17T00:17:26.356Z,99.36
2023-01-17T00:18:27.590Z,99.25
2023-01-17T00:19:29.055Z,99.53
2023-01-17T00:20:31.369Z,99.28
2023-01-17T00:21:32.746Z,99.49
2023-01-17T00:22:34.018Z,99.44
2023-01-17T00:23:35.209Z,99.68
2023-01-17T00:24:36.485Z,99.68
2023-01-17T00:25:38.486Z,99.69
2023-01-17T00:26:39.675Z,99.61
2023-01-17T00:27:41.044Z,98.78
2023-01-17T00:28:43.302Z,98.18
2023-01-17T00:29:44.651Z,98.08
2023-01-17T00:30:46.216Z,98.59
2023-01-17T00:31:49.564Z,97.17
2023-01-17T00:32:50.796Z,97.08
2023-01-17T00:33:52.098Z,96.50
2023-01-17T00:34:53.721Z,96.62
2023-01-17T00:35:56.366Z,96.30
2023-01-17T00:36:57.584Z,95.80
2023-01-17T00:38:02.591Z,95.06
2023-01-17T00:39:03.866Z,94.65
2023-01-17T00:40:05.370Z,95.06
2023-01-17T00:41:08.085Z,94.82
2023-01-17T00:42:09.384Z,94.73
2023-01-17T00:43:11.423Z,94.61
2023-01-17T00:44:12.697Z,94.84
2023-01-17T00:45:14.017Z,94.68
2023-01-17T00:46:15.505Z,95.07
2023-01-17T00:47:17.038Z,95.16
2023-01-17T00:48:18.294Z,95.35
2023-01-17T00:49:19.477Z,95.35
2023-01-17T00:50:20.773Z,95.18
2023-01-17T00:51:22.785Z,95.07
2023-01-17T00:52:24.004Z,95.38
2023-01-17T00:53:25.215Z,94.76
2023-01-17T00:54:28.781Z,94.64
2023-01-17T00:55:30.032Z,94.62
2023-01-17T00:56:31.314Z,94.56
2023-01-17T00:57:32.555Z,93.68
2023-01-17T00:58:34.006Z,93.99
2023-01-17T00:59:35.850Z,94.34
2023-01-17T01:00:37.524Z,93.87
2023-01-17T01:01:38.895Z,93.87
2023-01-17T01:02:40.315Z,94.32
2023-01-17T01:03:41.570Z,94.37
2023-01-17T01:04:42.991Z,94.43
2023-01-17T01:05:44.257Z,94.05
2023-01-17T01:06:45.522Z,93.79
2023-01-17T01:07:46.815Z,93.98
2023-01-17T01:08:48.144Z,93.04
2023-01-17T01:09:49.423Z,92.89
2023-01-17T01:10:50.703Z,92.24
2023-01-17T01:11:51.894Z,91.75
2023-01-17T01:12:53.078Z,91.16
2023-01-17T01:13:54.555Z,91.60
2023-01-17T01:14:55.811Z,92.16
2023-01-17T01:16:00.397Z,91.92
2023-01-17T01:17:01.746Z,92.13
2023-01-17T01:18:11.399Z,92.20
2023-01-17T01:19:12.631Z,90.99
2023-01-17T01:20:13.927Z,91.20
2023-01-17T01:21:15.187Z,89.32
2023-01-17T01:22:16.429Z,90.62
2023-01-17T01:23:17.806Z,89.63
2023-01-17T01:24:19.029Z,89.81
2023-01-17T01:25:20.371Z,89.90
2023-01-17T01:26:22.853Z,89.83
2023-01-17T01:27:24.469Z,89.27
2023-01-17T01:28:25.687Z,89.33
2023-01-17T01:29:26.909Z,90.08
2023-01-17T01:30:28.169Z,89.78
2023-01-17T01:31:29.638Z,89.70
2023-01-17T01:32:33.802Z,89.34
2023-01-17T01:33:35.098Z,89.10
2023-01-17T01:34:36.294Z,89.08
2023-01-17T01:35:37.556Z,90.13
2023-01-17T01:36:39.138Z,90.17
2023-01-17T01:37:42.667Z,90.54
2023-01-17T01:38:43.921Z,90.90
2023-01-17T01:39:46.193Z,90.77
2023-01-17T01:40:51.555Z,89.76
2023-01-17T01:41:53.034Z,90.04
2023-01-17T01:42:55.983Z,89.68
2023-01-17T01:43:58.270Z,90.10
2023-01-17T01:44:59.504Z,89.46
2023-01-17T01:46:01.122Z,89.83
2023-01-17T01:47:02.571Z,89.72
2023-01-17T01:48:13.558Z,89.63
2023-01-17T01:49:19.555Z,89.51
2023-01-17T01:50:21.408Z,89.06
2023-01-17T01:51:25.671Z,89.66
2023-01-17T01:52:28.873Z,89.35
2023-01-17T01:53:31.759Z,89.09
2023-01-17T01:54:59.611Z,90.00
2023-01-17T01:56:03.200Z,88.35
2023-01-17T01:57:06.961Z,88.51
2023-01-17T01:58:15.183Z,88.92
2023-01-17T01:59:19.746Z,88.64
2023-01-17T02:00:30.075Z,89.08
2023-01-17T02:01:33.345Z,88.77
2023-01-17T02:02:35.346Z,88.81
2023-01-17T02:03:38.634Z,88.99
2023-01-17T02:04:39.988Z,88.98
2023-01-17T02:05:42.450Z,89.18
2023-01-17T02:06:45.991Z,89.31
2023-01-17T02:07:52.046Z,90.06
2023-01-17T02:08:53.571Z,89.45
2023-01-17T02:09:55.008Z,89.15
2023-01-17T02:10:56.340Z,89.42
2023-01-17T02:11:57.925Z,89.24
2023-01-17T02:13:00.241Z,89.21
2023-01-17T02:14:02.420Z,89.51
2023-01-17T02:15:05.718Z,88.85
2023-01-17T02:16:27.608Z,89.14
2023-01-17T02:17:34.376Z,88.51
2023-01-17T02:18:54.250Z,88.12
2023-01-17T02:20:14.027Z,87.74
2023-01-17T02:21:24.560Z,87.79
2023-01-17T02:22:44.933Z,87.06
2023-01-17T02:24:01.460Z,87.21
2023-01-17T02:25:29.042Z,87.63
2023-01-17T02:26:36.789Z,87.12
2023-01-17T02:27:50.659Z,87.14
2023-01-17T02:28:58.322Z,86.26
2023-01-17T02:30:12.179Z,86.71
2023-01-17T02:31:36.919Z,87.82
2023-01-17T02:32:46.474Z,87.41
2023-01-17T02:33:57.171Z,87.32
2023-01-17T02:35:04.090Z,87.48
2023-01-17T02:36:10.645Z,88.40
2023-01-17T02:37:16.933Z,88.16
2023-01-17T02:38:37.027Z,88.53
2023-01-17T02:39:43.639Z,88.49
2023-01-17T02:40:47.455Z,87.95
2023-01-17T02:41:54.818Z,87.95
2023-01-17T02:43:05.143Z,88.30
2023-01-17T02:44:08.654Z,88.69
2023-01-17T02:45:14.716Z,89.26
2023-01-17T02:46:16.069Z,89.50
2023-01-17T02:47:24.944Z,89.24
2023-01-17T02:48:28.682Z,89.53
2023-01-17T02:49:31.654Z,89.45
2023-01-17T02:50:43.855Z,89.81
2023-01-17T02:51:54.263Z,89.71
2023-01-17T02:53:03.905Z,90.41
2023-01-17T02:54:15.707Z,89.77
2023-01-17T02:55:20.130Z,90.23
2023-01-17T02:56:33.630Z,90.16
2023-01-17T02:57:52.425Z,90.56
2023-01-17T02:59:05.334Z,90.09
2023-01-17T03:00:17.979Z,90.78
2023-01-17T03:01:19.225Z,91.03
2023-01-17T03:02:29.329Z,90.53
2023-01-17T03:03:37.204Z,90.70
2023-01-17T03:04:42.659Z,90.52
2023-01-17T03:05:50.729Z,90.52
2023-01-17T03:06:55.635Z,90.94
2023-01-17T03:07:57.482Z,90.88
2023-01-17T03:08:58.686Z,90.92
2023-01-17T03:10:01.591Z,90.23
2023-01-17T03:11:02.896Z,90.43
2023-01-17T03:12:04.493Z,91.28
2023-01-17T03:13:05.731Z,91.52
2023-01-17T03:14:07.094Z,91.60
2023-01-17T03:15:09.964Z,91.35
2023-01-17T03:16:21.689Z,90.90
2023-01-17T03:17:25.043Z,91.05
2023-01-17T03:18:26.761Z,91.63
2023-01-17T03:19:28.187Z,91.28
2023-01-17T03:20:29.535Z,91.55
2023-01-17T03:21:30.891Z,91.55
2023-01-17T03:22:32.361Z,91.77
2023-01-17T03:23:33.672Z,91.50
2023-01-17T03:24:37.393Z,92.21
2023-01-17T03:25:38.741Z,91.67
2023-01-17T03:26:40.012Z,92.14
2023-01-17T03:27:41.507Z,92.30
2023-01-17T03:28:42.804Z,92.07
2023-01-17T03:29:44.129Z,92.56
2023-01-17T03:30:45.688Z,92.10
2023-01-17T03:31:46.887Z,92.78
2023-01-17T03:32:48.427Z,92.37
2023-01-17T03:33:51.252Z,92.46
2023-01-17T03:34:52.493Z,92.55
2023-01-17T03:35:53.981Z,92.43
2023-01-17T03:36:57.467Z,92.83
2023-01-17T03:37:58.950Z,92.69
2023-01-17T03:39:00.286Z,93.10
2023-01-17T03:40:04.628Z,93.30
2023-01-17T03:41:06.281Z,93.71
2023-01-17T03:42:07.993Z,93.41
2023-01-17T03:43:12.173Z,93.04
2023-01-17T03:44:13.459Z,93.54
2023-01-17T03:45:14.767Z,93.33
2023-01-17T03:46:23.989Z,93.61
2023-01-17T03:47:25.366Z,93.51
2023-01-17T03:48:26.559Z,93.49
2023-01-17T03:49:27.972Z,94.25
2023-01-17T03:50:29.273Z,93.86
2023-01-17T03:51:30.535Z,93.86
2023-01-17T03:52:31.913Z,94.10
2023-01-17T03:53:34.800Z,94.23
2023-01-17T03:54:36.116Z,94.88
2023-01-17T03:55:37.344Z,95.32
2023-01-17T03:56:38.544Z,95.28
2023-01-17T03:57:40.001Z,95.96
2023-01-17T03:58:41.666Z,96.13
2023-01-17T03:59:43.016Z,96.98
2023-01-17T04:00:46.987Z,97.97
2023-01-17T04:01:48.492Z,98.63
2023-01-17T04:02:50.400Z,99.41
2023-01-17T04:03:52.862Z,99.79
2023-01-17T04:04:57.654Z,100.00
2023-01-17T04:06:01.895Z,100.00
2023-01-17T04:07:03.241Z,100.00
2023-01-17T04:08:05.461Z,100.00
2023-01-17T04:09:06.693Z,100.00
2023-01-17T04:10:09.345Z,100.00
2023-01-17T04:11:10.591Z,100.00
2023-01-17T04:12:11.842Z,100.00
2023-01-17T04:13:13.029Z,100.00
2023-01-17T04:14:14.317Z,100.00
2023-01-17T04:15:15.521Z,100.00
2023-01-17T04:16:17.870Z,100.00
2023-01-17T04:17:19.732Z,100.00
2023-01-17T04:18:21.392Z,100.00
2023-01-17T04:19:23.794Z,100.00
2023-01-17T04:20:31.546Z,100.00
2023-01-17T04:21:32.800Z,100.00
2023-01-17T04:22:34.281Z,100.00
2023-01-17T04:23:35.826Z,100.00
2023-01-17T04:24:37.074Z,99.74
2023-01-17T04:25:39.712Z,99.15
2023-01-17T04:26:40.962Z,99.13
2023-01-17T04:27:42.309Z,98.64
2023-01-17T04:28:43.790Z,98.36
2023-01-17T04:29:46.735Z,97.46
2023-01-17T04:30:48.309Z,97.81
2023-01-17T04:31:49.630Z,97.72
2023-01-17T04:32:50.915Z,97.69
2023-01-17T04:33:52.202Z,97.34
2023-01-17T04:34:53.405Z,96.43
2023-01-17T04:35:55.286Z,96.55
2023-01-17T04:36:56.542Z,95.93
2023-01-17T04:37:57.846Z,95.85
2023-01-17T04:39:00.671Z,95.17
2023-01-17T04:40:01.916Z,95.68
2023-01-17T04:41:03.718Z,94.99
2023-01-17T04:42:05.492Z,94.95
2023-01-17T04:43:06.697Z,95.33
2023-01-17T04:44:07.960Z,95.28
2023-01-17T04:45:10.024Z,95.70
2023-01-17T04:46:13.512Z,95.77
2023-01-17T04:47:15.354Z,95.65
2023-01-17T04:48:16.663Z,96.14
2023-01-17T04:49:17.919Z,95.87
2023-01-17T04:50:19.272Z,96.03
2023-01-17T04:51:20.507Z,95.74
2023-01-17T04:52:22.900Z,95.45
2023-01-17T04:53:24.373Z,95.14
2023-01-17T04:54:25.664Z,94.68
2023-01-17T04:55:28.261Z,94.78
2023-01-17T04:56:29.554Z,93.88
2023-01-17T04:57:30.909Z,94.21
2023-01-17T04:58:32.312Z,94.35
2023-01-17T04:59:33.554Z,94.15
2023-01-17T05:00:34.858Z,94.18
2023-01-17T05:01:36.469Z,94.01
2023-01-17T05:02:37.928Z,94.32
2023-01-17T05:03:39.221Z,94.68
2023-01-17T05:04:41.797Z,94.51
2023-01-17T05:05:44.378Z,94.64
2023-01-17T05:06:46.672Z,94.43
2023-01-17T05:07:53.266Z,94.40
2023-01-17T05:08:54.537Z,93.91
2023-01-17T05:09:55.958Z,93.69
2023-01-17T05:10:57.189Z,93.84
2023-01-17T05:11:58.473Z,93.77
2023-01-17T05:12:59.857Z,93.66
2023-01-17T05:14:01.088Z,93.07
2023-01-17T05:15:02.462Z,93.11
2023-01-17T05:16:04.096Z,92.89
2023-01-17T05:17:05.666Z,92.88
2023-01-17T05:18:07.192Z,93.07
2023-01-17T05:19:08.514Z,93.09
2023-01-17T05:20:10.126Z,92.68
2023-01-17T05:21:11.370Z,92.28
2023-01-17T05:22:13.393Z,92.03
2023-01-17T05:23:15.181Z,91.71
2023-01-17T05:24:16.734Z,91.73
2023-01-17T05:25:18.018Z,91.35
2023-01-17T05:26:19.219Z,91.67
2023-01-17T05:27:20.579Z,90.85
2023-01-17T05:28:21.977Z,90.42
2023-01-17T05:29:25.238Z,90.06
2023-01-17T05:30:26.933Z,89.95
2023-01-17T05:31:28.255Z,90.05
2023-01-17T05:32:30.077Z,89.89
2023-01-17T05:33:31.478Z,90.15
2023-01-17T05:34:33.751Z,89.84
2023-01-17T05:35:35.195Z,90.10
2023-01-17T05:36:36.476Z,90.42
2023-01-17T05:37:38.764Z,90.20
2023-01-17T05:38:40.200Z,90.33
2023-01-17T05:39:41.469Z,90.92
2023-01-17T05:40:42.795Z,90.92
2023-01-17T05:41:44.193Z,91.44
2023-01-17T05:42:46.301Z,91.39
2023-01-17T05:43:47.645Z,91.96
2023-01-17T05:44:49.103Z,92.03
2023-01-17T05:45:50.335Z,91.85
2023-01-17T05:46:51.566Z,92.19
2023-01-17T05:47:53.306Z,91.86
2023-01-17T05:48:54.503Z,91.78
2023-01-17T05:49:55.805Z,91.69
2023-01-17T05:50:57.312Z,91.88
2023-01-17T05:51:58.624Z,91.97
2023-01-17T05:53:01.652Z,91.69
2023-01-17T05:54:04.259Z,92.34
2023-01-17T05:55:05.782Z,92.00
2023-01-17T05:56:07.115Z,92.06
2023-01-17T05:57:08.465Z,92.33
2023-01-17T05:58:18.815Z,92.72
2023-01-17T05:59:32.250Z,93.62
2023-01-17T06:00:37.682Z,93.52
2023-01-17T06:01:39.217Z,93.49
2023-01-17T06:02:40.900Z,94.17
2023-01-17T06:03:42.287Z,94.44
2023-01-17T06:04:43.518Z,94.25
2023-01-17T06:05:44.970Z,94.89
2023-01-17T06:06:46.606Z,94.70
2023-01-17T06:07:48.134Z,95.28
2023-01-17T06:08:50.917Z,95.48
2023-01-17T06:09:52.305Z,95.25
2023-01-17T06:10:53.578Z,95.28
2023-01-17T06:11:55.059Z,95.61
2023-01-17T06:13:06.560Z,95.83
2023-01-17T06:14:08.961Z,95.87
2023-01-17T06:15:10.454Z,96.10
2023-01-17T06:16:11.875Z,95.84
2023-01-17T06:17:13.243Z,96.59
2023-01-17T06:18:16.910Z,96.45
2023-01-17T06:19:18.207Z,96.55
2023-01-17T06:20:19.654Z,96.62
2023-01-17T06:21:21.030Z,97.41
2023-01-17T06:22:23.841Z,97.59
2023-01-17T06:23:25.059Z,97.64
2023-01-17T06:24:27.697Z,98.67
2023-01-17T06:25:30.569Z,98.03
2023-01-17T06:26:31.785Z,98.46
2023-01-17T06:27:33.081Z,98.30
2023-01-17T06:28:34.361Z,98.74
2023-01-17T06:29:35.585Z,98.68
2023-01-17T06:30:36.826Z,99.13
2023-01-17T06:31:38.168Z,99.59
2023-01-17T06:32:39.678Z,98.94
2023-01-17T06:33:40.912Z,99.03
2023-01-17T06:34:42.238Z,99.40
2023-01-17T06:35:51.160Z,98.83
2023-01-17T06:36:52.534Z,98.94
2023-01-17T06:37:54.199Z,98.86
2023-01-17T06:38:57.350Z,98.31
2023-01-17T06:39:58.598Z,98.87
2023-01-17T06:41:03.509Z,98.49
2023-01-17T06:42:04.816Z,98.37
2023-01-17T06:43:06.029Z,98.36
2023-01-17T06:44:10.553Z,98.39
2023-01-17T06:45:11.845Z,98.06
2023-01-17T06:46:13.151Z,98.21
2023-01-17T06:47:14.422Z,97.69
2023-01-17T06:48:15.684Z,97.94
2023-01-17T06:49:16.993Z,97.97
2023-01-17T06:50:18.295Z,97.84
2023-01-17T06:51:19.581Z,97.65
2023-01-17T06:52:20.870Z,98.45
2023-01-17T06:53:22.314Z,98.67
2023-01-17T06:54:25.754Z,98.03
2023-01-17T06:55:28.136Z,97.61
2023-01-17T06:56:32.933Z,97.80
2023-01-17T06:57:34.184Z,97.94
2023-01-17T06:58:35.958Z,98.10
2023-01-17T06:59:37.293Z,97.97
2023-01-17T07:00:40.753Z,98.09
2023-01-17T07:01:42.622Z,98.15
2023-01-17T07:02:44.037Z,97.87
2023-01-17T07:03:45.412Z,97.90
2023-01-17T07:04:47.941Z,97.98
2023-01-17T07:05:49.813Z,98.12
2023-01-17T07:06:51.065Z,97.89
2023-01-17T07:07:53.708Z,98.59
2023-01-17T07:08:55.813Z,98.46
2023-01-17T07:09:57.050Z,98.54
2023-01-17T07:10:59.826Z,98.94
2023-01-17T07:12:01.577Z,99.70
2023-01-17T07:13:02.825Z,98.81
2023-01-17T07:14:04.143Z,98.81
2023-01-17T07:15:06.025Z,99.37
2023-01-17T07:16:08.103Z,98.96
2023-01-17T07:17:09.436Z,99.71
2023-01-17T07:18:10.712Z,99.46
2023-01-17T07:19:12.188Z,99.20
2023-01-17T07:20:13.471Z,99.68
2023-01-17T07:21:16.384Z,99.14
2023-01-17T07:22:17.579Z,98.64
2023-01-17T07:23:19.767Z,98.78
2023-01-17T07:24:21.611Z,98.11
2023-01-17T07:25:22.865Z,98.01
2023-01-17T07:26:24.298Z,97.87
2023-01-17T07:27:26.489Z,97.85
2023-01-17T07:28:28.063Z,98.51
2023-01-17T07:29:29.329Z,97.94
2023-01-17T07:30:30.602Z,97.86
2023-01-17T07:31:32.068Z,97.26
2023-01-17T07:32:33.274Z,97.63
2023-01-17T07:33:34.921Z,97.36
2023-01-17T07:34:37.365Z,97.17
2023-01-17T07:35:38.614Z,97.83
2023-01-17T07:36:39.897Z,98.12
2023-01-17T07:37:46.549Z,98.09
2023-01-17T07:38:47.728Z,98.91
2023-01-17T07:39:48.980Z,98.58
2023-01-17T07:40:50.149Z,98.58
2023-01-17T07:41:51.377Z,99.06
2023-01-17T07:42:59.958Z,98.50
2023-01-17T07:44:01.254Z,98.63
2023-01-17T07:45:02.576Z,98.28
2023-01-17T07:46:05.701Z,97.58
2023-01-17T07:47:06.944Z,97.74
2023-01-17T07:48:08.215Z,98.25
2023-01-17T07:49:09.453Z,97.88
2023-01-17T07:50:11.305Z,97.82
2023-01-17T07:51:12.680Z,97.71
2023-01-17T07:52:13.983Z,98.62
2023-01-17T07:53:15.285Z,98.73
2023-01-17T07:54:17.145Z,98.73
2023-01-17T07:55:18.417Z,98.30
2023-01-17T07:56:21.075Z,98.83
2023-01-17T07:57:22.738Z,97.92
2023-01-17T07:58:23.988Z,98.51
2023-01-17T07:59:25.217Z,98.60
2023-01-17T08:00:26.584Z,98.53
2023-01-17T08:01:29.643Z,98.28
2023-01-17T08:02:30.941Z,98.32
2023-01-17T08:03:32.561Z,97.91
2023-01-17T08:04:33.798Z,98.51
2023-01-17T08:05:35.055Z,98.95
2023-01-17T08:06:37.163Z,98.49
2023-01-17T08:07:38.366Z,98.77
2023-01-17T08:08:39.611Z,99.01
2023-01-17T08:09:41.643Z,99.55
2023-01-17T08:10:43.208Z,99.15
2023-01-17T08:11:44.421Z,99.48
2023-01-17T08:12:46.605Z,100.00
2023-01-17T08:13:47.958Z,100.00
2023-01-17T08:14:49.198Z,100.00
2023-01-17T08:15:50.573Z,99.99
2023-01-17T08:16:51.792Z,100.00
2023-01-17T08:17:53.247Z,100.00
2023-01-17T08:18:54.918Z,100.00
2023-01-17T08:19:56.091Z,100.00
2023-01-17T08:20:57.481Z,100.00
2023-01-17T08:21:58.677Z,100.00
2023-01-17T08:23:00.060Z,100.00
2023-01-17T08:24:01.425Z,100.00
2023-01-17T08:25:02.684Z,100.00
2023-01-17T08:26:03.947Z,100.00
2023-01-17T08:27:05.150Z,100.00
2023-01-17T08:28:06.706Z,100.00
2023-01-17T08:29:08.715Z,100.00
2023-01-17T08:30:10.295Z,100.00
2023-01-17T08:31:12.012Z,100.00
2023-01-17T08:32:13.393Z,100.00
2023-01-17T08:33:14.631Z,100.00
2023-01-17T08:34:16.017Z,100.00
2023-01-17T08:35:17.394Z,100.00
2023-01-17T08:36:18.574Z,100.00
2023-01-17T08:37:20.486Z,100.00
2023-01-17T08:38:21.885Z,99.96
2023-01-17T08:39:23.090Z,100.00
2023-01-17T08:40:24.615Z,99.39
2023-01-17T08:41:26.040Z,98.96
2023-01-17T08:42:27.780Z,98.75
2023-01-17T08:43:29.382Z,98.14
2023-01-17T08:44:30.650Z,97.83
2023-01-17T08:45:32.109Z,97.33
2023-01-17T08:46:33.341Z,96.83
2023-01-17T08:47:37.002Z,96.50
2023-01-17T08:48:38.219Z,95.73
2023-01-17T08:49:39.620Z,95.94
2023-01-17T08:50:40.912Z,96.05
2023-01-17T08:51:42.095Z,96.23
2023-01-17T08:52:43.282Z,95.91
2023-01-17T08:53:46.517Z,94.99
2023-01-17T08:54:47.897Z,94.91
2023-01-17T08:55:49.262Z,94.79
2023-01-17T08:56:50.511Z,94.65
2023-01-17T08:57:52.317Z,95.06
2023-01-17T08:58:53.623Z,94.95
2023-01-17T08:59:54.939Z,95.20
2023-01-17T09:01:00.265Z,95.63
2023-01-17T09:02:01.667Z,95.08
2023-01-17T09:03:02.984Z,95.14
2023-01-17T09:04:04.458Z,94.90
2023-01-17T09:05:06.200Z,94.83
2023-01-17T09:06:12.344Z,94.91
2023-01-17T09:07:14.257Z,94.24
2023-01-17T09:08:15.568Z,94.14
2023-01-17T09:09:17.399Z,93.55
2023-01-17T09:10:18.673Z,93.24
2023-01-17T09:11:19.946Z,93.52
2023-01-17T09:12:21.272Z,93.24
2023-01-17T09:13:22.549Z,92.96
2023-01-17T09:15:40.581Z,92.81
2023-01-17T09:16:42.060Z,92.53
2023-01-17T09:17:43.380Z,92.35
2023-01-17T09:18:44.791Z,92.32
2023-01-17T09:19:49.147Z,92.07
2023-01-17T09:20:50.437Z,91.40
2023-01-17T09:21:51.666Z,91.28
2023-01-17T09:22:52.836Z,91.53
2023-01-17T09:23:54.745Z,91.79
2023-01-17T09:24:57.139Z,90.97
2023-01-17T09:25:59.620Z,90.47
2023-01-17T09:27:00.874Z,90.54
2023-01-17T09:28:02.101Z,90.47
2023-01-17T09:29:03.613Z,91.29
2023-01-17T09:30:05.226Z,91.32
2023-01-17T09:31:07.598Z,92.04
2023-01-17T09:32:08.900Z,92.09
2023-01-17T09:33:10.236Z,90.45
2023-01-17T09:34:11.440Z,90.11
2023-01-17T09:35:12.856Z,90.40
2023-01-17T09:36:15.343Z,90.60
2023-01-17T09:37:17.169Z,90.35
2023-01-17T09:38:18.537Z,89.36
2023-01-17T09:39:19.701Z,89.13
2023-01-17T09:40:23.671Z,88.49
2023-01-17T09:41:27.931Z,88.33
2023-01-17T09:42:37.099Z,87.16
2023-01-17T09:43:45.423Z,86.33
2023-01-17T09:44:47.712Z,86.79
2023-01-17T09:45:49.354Z,86.89
2023-01-17T09:46:52.094Z,87.14
2023-01-17T09:47:54.523Z,87.38
2023-01-17T09:49:02.748Z,86.47
2023-01-17T09:50:22.531Z,86.12
2023-01-17T09:51:24.260Z,86.09
2023-01-17T09:52:28.947Z,85.68
2023-01-17T09:53:34.502Z,85.71
2023-01-17T09:54:38.473Z,86.00
2023-01-17T09:55:47.751Z,85.86
2023-01-17T09:57:00.908Z,85.71
2023-01-17T09:58:11.776Z,85.41
2023-01-17T09:59:35.797Z,84.03
2023-01-17T10:00:42.669Z,83.57
2023-01-17T10:01:44.245Z,82.69
2023-01-17T10:03:03.764Z,83.04
2023-01-17T10:04:23.453Z,83.96
2023-01-17T10:05:28.573Z,82.86
2023-01-17T10:06:56.599Z,81.38
2023-01-17T10:07:57.975Z,81.56
2023-01-17T10:09:17.882Z,81.31
2023-01-17T10:10:25.601Z,81.56
2023-01-17T10:11:35.892Z,82.00
2023-01-17T10:12:49.709Z,81.08
2023-01-17T10:13:56.930Z,81.65
2023-01-17T10:15:14.624Z,80.97
2023-01-17T10:16:28.202Z,81.36
2023-01-17T10:17:50.637Z,81.35
2023-01-17T10:19:00.872Z,81.47
2023-01-17T10:20:20.769Z,81.92
2023-01-17T10:21:31.167Z,81.78
2023-01-17T10:22:54.755Z,81.68
2023-01-17T10:24:09.617Z,78.98
2023-01-17T10:25:14.048Z,77.82
2023-01-17T10:26:23.856Z,75.76
2023-01-17T10:27:28.374Z,76.63
2023-01-17T10:28:34.150Z,76.72
2023-01-17T10:29:35.807Z,76.35
2023-01-17T10:30:39.064Z,76.10
2023-01-17T10:31:44.998Z,74.89
2023-01-17T10:32:47.856Z,74.48
2023-01-17T10:33:53.285Z,74.33
2023-01-17T10:34:54.639Z,73.78
2023-01-17T10:36:01.022Z,73.36
2023-01-17T10:37:15.251Z,73.35
2023-01-17T10:38:18.793Z,73.67
2023-01-17T10:39:22.408Z,73.64
2023-01-17T10:40:28.205Z,74.73
2023-01-17T10:41:37.923Z,75.13
2023-01-17T10:42:49.739Z,74.34
2023-01-17T10:43:51.007Z,73.82
2023-01-17T10:45:01.479Z,73.28
2023-01-17T10:46:02.833Z,73.72
2023-01-17T10:47:11.771Z,74.36
2023-01-17T10:48:16.405Z,74.29
2023-01-17T10:49:19.974Z,72.79
2023-01-17T10:50:23.228Z,73.07
2023-01-17T10:51:42.683Z,73.57
2023-01-17T10:52:59.647Z,73.55
2023-01-17T10:54:08.892Z,71.41
2023-01-17T10:55:37.091Z,71.64
2023-01-17T10:56:40.270Z,71.15
2023-01-17T10:57:43.495Z,71.83
2023-01-17T10:58:44.951Z,71.14
2023-01-17T10:59:46.199Z,71.10
2023-01-17T11:00:47.674Z,69.94
2023-01-17T11:01:51.077Z,70.26
2023-01-17T11:02:52.661Z,70.61
2023-01-17T11:03:54.036Z,68.99
2023-01-17T11:04:56.623Z,68.59
2023-01-17T11:06:14.447Z,69.89
2023-01-17T11:07:17.967Z,70.65
2023-01-17T11:08:19.927Z,71.19
2023-01-17T11:09:36.767Z,70.67
2023-01-17T11:10:41.509Z,70.24
2023-01-17T11:11:50.468Z,69.26
2023-01-17T11:12:51.782Z,68.63
2023-01-17T11:13:54.398Z,69.42
2023-01-17T11:14:58.854Z,69.77
2023-01-17T11:16:04.925Z,69.92
2023-01-17T11:17:06.782Z,67.75
2023-01-17T11:18:14.864Z,65.34
2023-01-17T11:19:21.036Z,63.89
2023-01-17T11:20:25.364Z,63.23
2023-01-17T11:21:27.263Z,62.77
2023-01-17T11:22:30.747Z,62.28
2023-01-17T11:23:33.538Z,62.47
2023-01-17T11:24:36.165Z,63.26
2023-01-17T11:25:37.706Z,62.21
2023-01-17T11:26:45.600Z,62.88
2023-01-17T11:27:56.807Z,63.57
2023-01-17T11:29:25.499Z,64.37
2023-01-17T11:30:26.710Z,64.40
2023-01-17T11:31:28.113Z,64.86
2023-01-17T11:32:31.510Z,65.58
2023-01-17T11:33:49.313Z,66.15
2023-01-17T11:35:05.206Z,65.83
2023-01-17T11:36:06.607Z,65.13
2023-01-17T11:37:28.054Z,62.66
2023-01-17T11:38:29.414Z,63.44
2023-01-17T11:39:30.679Z,63.39
2023-01-17T11:40:39.947Z,63.74
2023-01-17T11:43:01.233Z,60.63
2023-01-17T11:44:03.209Z,59.62
2023-01-17T11:45:23.308Z,59.12
2023-01-17T11:46:24.955Z,61.07
2023-01-17T11:47:26.295Z,62.21
2023-01-17T11:48:33.024Z,61.19
2023-01-17T11:49:34.302Z,62.05
2023-01-17T11:50:36.714Z,62.39
2023-01-17T11:51:41.871Z,61.41
2023-01-17T11:52:43.139Z,60.88
2023-01-17T11:53:45.238Z,59.59
2023-01-17T11:54:47.640Z,59.44
2023-01-17T11:58:35.496Z,57.99
2023-01-17T11:59:37.950Z,57.76
2023-01-17T12:00:43.663Z,57.44
2023-01-17T12:02:03.588Z,58.95
2023-01-17T12:03:10.651Z,58.50
2023-01-17T12:04:11.896Z,59.66
2023-01-17T12:05:20.015Z,58.29
2023-01-17T12:06:27.785Z,58.20
2023-01-17T12:07:31.668Z,58.23
2023-01-17T12:08:32.915Z,58.27
2023-01-17T12:09:39.944Z,57.53
2023-01-17T12:10:59.663Z,58.33
2023-01-17T12:12:07.180Z,58.13
2023-01-17T12:13:14.032Z,58.79
2023-01-17T12:14:25.231Z,58.79
2023-01-17T12:15:26.639Z,59.31
2023-01-17T12:16:42.877Z,60.30
2023-01-17T12:17:47.192Z,59.73
2023-01-17T12:18:53.305Z,58.14
2023-01-17T12:20:01.754Z,56.81
2023-01-17T12:21:09.048Z,57.26
2023-01-17T12:22:10.221Z,57.72
2023-01-17T12:23:30.370Z,57.75
2023-01-17T12:24:50.174Z,57.13
2023-01-17T12:25:54.156Z,58.08
2023-01-17T12:27:09.250Z,57.94
2023-01-17T12:28:19.234Z,57.57
2023-01-17T12:29:20.475Z,56.30
2023-01-17T12:30:21.671Z,56.26
2023-01-17T12:31:26.139Z,57.38
2023-01-17T12:32:46.197Z,57.38
2023-01-17T12:33:50.334Z,57.97
2023-01-17T12:34:51.570Z,56.59
2023-01-17T12:35:57.623Z,56.25
2023-01-17T12:36:58.842Z,57.66
2023-01-17T12:38:05.708Z,55.78
2023-01-17T12:39:07.952Z,55.45
2023-01-17T12:40:27.909Z,54.88
2023-01-17T12:41:52.170Z,54.80
2023-01-17T12:42:58.916Z,55.00
2023-01-17T12:44:00.619Z,55.93
2023-01-17T12:45:01.896Z,54.51
2023-01-17T12:46:14.919Z,54.88
2023-01-17T12:47:18.222Z,55.38
2023-01-17T12:48:20.338Z,55.26
2023-01-17T12:49:42.532Z,54.62
2023-01-17T12:50:46.511Z,54.55
2023-01-17T12:51:52.576Z,56.19
2023-01-17T12:53:00.721Z,56.78
2023-01-17T12:54:21.066Z,54.80
2023-01-17T12:55:42.639Z,54.59
2023-01-17T12:57:12.099Z,55.28
2023-01-17T12:58:18.762Z,55.28
2023-01-17T12:59:25.579Z,55.45
2023-01-17T13:00:28.414Z,54.01
2023-01-17T13:01:30.687Z,54.13
2023-01-17T13:02:52.735Z,54.56
2023-01-17T13:04:01.969Z,54.15
2023-01-17T13:05:03.217Z,53.81
2023-01-17T13:06:05.915Z,53.99
2023-01-17T13:07:25.816Z,54.33
2023-01-17T13:08:39.116Z,55.51
2023-01-17T13:09:45.832Z,54.96
2023-01-17T13:10:52.723Z,55.49
2023-01-17T13:12:00.853Z,54.52
2023-01-17T13:13:13.174Z,54.90
2023-01-17T13:14:14.448Z,55.06
2023-01-17T13:15:16.735Z,54.60
2023-01-17T13:16:21.115Z,54.98
2023-01-17T13:17:40.738Z,55.85
2023-01-17T13:18:45.058Z,55.49
2023-01-17T13:20:09.498Z,55.89
2023-01-17T13:21:10.719Z,55.31
2023-01-17T13:22:13.880Z,55.22
2023-01-17T13:23:21.220Z,55.12
2023-01-17T13:24:22.449Z,56.00
2023-01-17T13:25:35.557Z,55.16
2023-01-17T13:26:59.858Z,56.27
2023-01-17T13:28:14.181Z,55.67
2023-01-17T13:29:33.721Z,56.10
2023-01-17T13:30:35.131Z,55.35
2023-01-17T13:31:45.073Z,55.36
2023-01-17T13:33:01.886Z,56.00
2023-01-17T13:34:15.192Z,55.91
2023-01-17T13:35:35.715Z,55.88
2023-01-17T13:36:45.953Z,55.56
2023-01-17T13:38:05.920Z,54.19
2023-01-17T13:39:07.144Z,55.47
2023-01-17T13:40:29.459Z,55.22
2023-01-17T13:41:36.558Z,55.41
2023-01-17T13:42:49.580Z,55.26
2023-01-17T13:43:51.090Z,54.83
2023-01-17T13:44:52.418Z,54.59
2023-01-17T13:45:55.652Z,55.07
2023-01-17T13:47:01.664Z,55.57
2023-01-17T13:48:11.765Z,55.15
2023-01-17T13:49:31.622Z,55.32
2023-01-17T13:50:38.621Z,54.49
2023-01-17T13:52:01.484Z,54.99